createdAt,value
2023-03-03T00:01:16.056Z,100.00
2023-03-03T00:03:42.900Z,100.00
2023-03-03T00:06:11.992Z,100.00
2023-03-03T00:08:39.314Z,100.00
2023-03-03T00:11:07.834Z,100.00
2023-03-03T00:13:43.875Z,100.00
2023-03-03T00:16:24.362Z,100.00
2023-03-03T00:18:52.171Z,100.00
2023-03-03T00:21:42.204Z,100.00
2023-03-03T00:24:22.480Z,100.00
2023-03-03T00:26:55.710Z,100.00
2023-03-03T00:29:30.894Z,100.00
2023-03-03T00:32:22.750Z,100.00
2023-03-03T00:34:50.674Z,100.00
2023-03-03T00:37:29.094Z,100.00
2023-03-03T00:40:14.957Z,100.00
2023-03-03T00:42:43.563Z,100.00
2023-03-03T00:45:30.093Z,100.00
2023-03-03T00:47:57.527Z,100.00
2023-03-03T00:50:34.610Z,100.00
2023-03-03T00:53:12.926Z,100.00
2023-03-03T00:55:40.641Z,100.00
2023-03-03T00:58:07.629Z,100.00
2023-03-03T01:00:41.034Z,100.00
2023-03-03T01:03:21.680Z,100.00
2023-03-03T01:05:49.789Z,100.00
2023-03-03T01:08:17.264Z,100.00
2023-03-03T01:10:51.585Z,100.00
2023-03-03T01:13:20.426Z,100.00
2023-03-03T01:15:47.130Z,100.00
2023-03-03T01:18:14.481Z,100.00
2023-03-03T01:20:41.871Z,100.00
2023-03-03T01:23:08.893Z,100.00
2023-03-03T01:25:36.206Z,100.00
2023-03-03T01:28:03.033Z,100.00
2023-03-03T01:30:29.829Z,100.00
2023-03-03T01:32:56.811Z,100.00
2023-03-03T01:35:24.023Z,100.00
2023-03-03T01:37:50.775Z,100.00
2023-03-03T01:40:25.191Z,100.00
2023-03-03T01:42:52.753Z,100.00
2023-03-03T01:45:23.996Z,100.00
2023-03-03T01:47:58.754Z,100.00
2023-03-03T01:50:45.911Z,100.00
2023-03-03T01:53:25.954Z,100.00
2023-03-03T01:55:53.466Z,100.00
2023-03-03T01:58:29.959Z,100.00
2023-03-03T02:01:08.560Z,100.00
2023-03-03T02:03:35.723Z,100.00
2023-03-03T02:06:08.538Z,100.00
2023-03-03T02:08:41.179Z,100.00
2023-03-03T02:11:09.047Z,100.00
2023-03-03T02:13:36.815Z,100.00
2023-03-03T02:16:03.862Z,100.00
2023-03-03T02:18:30.775Z,100.00
2023-03-03T02:21:03.455Z,100.00
2023-03-03T02:23:36.165Z,100.00
2023-03-03T02:26:09.419Z,100.00
2023-03-03T02:28:37.481Z,100.00
2023-03-03T02:31:13.578Z,100.00
2023-03-03T02:33:43.843Z,100.00
2023-03-03T02:36:15.849Z,100.00
2023-03-03T02:38:53.239Z,100.00
2023-03-03T02:41:29.357Z,100.00
2023-03-03T02:44:07.883Z,100.00
2023-03-03T02:46:40.293Z,100.00
2023-03-03T02:49:09.630Z,100.00
2023-03-03T02:51:37.636Z,100.00
2023-03-03T02:54:05.358Z,100.00
2023-03-03T02:56:33.236Z,100.00
2023-03-03T02:59:00.196Z,100.00
2023-03-03T03:01:28.139Z,100.00
2023-03-03T03:03:54.957Z,100.00
2023-03-03T03:06:22.897Z,100.00
2023-03-03T03:08:50.037Z,100.00
2023-03-03T03:11:16.707Z,100.00
2023-03-03T03:13:43.558Z,100.00
2023-03-03T03:16:10.435Z,100.00
2023-03-03T03:18:37.324Z,100.00
2023-03-03T03:21:11.542Z,100.00
2023-03-03T03:23:39.691Z,100.00
2023-03-03T03:26:10.165Z,100.00
2023-03-03T03:28:37.399Z,100.00
2023-03-03T03:31:05.938Z,100.00
2023-03-03T03:33:34.559Z,100.00
2023-03-03T03:36:01.720Z,100.00
2023-03-03T03:38:29.830Z,100.00
2023-03-03T03:40:56.833Z,100.00
2023-03-03T03:43:23.753Z,100.00
2023-03-03T03:45:50.540Z,100.00
2023-03-03T03:48:19.914Z,100.00
2023-03-03T03:50:49.066Z,100.00
2023-03-03T03:53:17.112Z,100.00
2023-03-03T03:55:45.082Z,100.00
2023-03-03T03:58:17.370Z,100.00
2023-03-03T04:00:48.817Z,100.00
2023-03-03T04:03:16.307Z,100.00
2023-03-03T04:05:45.026Z,100.00
2023-03-03T04:08:12.516Z,100.00
2023-03-03T04:10:40.388Z,100.00
2023-03-03T04:13:07.349Z,100.00
2023-03-03T04:15:35.382Z,100.00
2023-03-03T04:18:03.588Z,100.00
2023-03-03T04:20:30.753Z,100.00
2023-03-03T04:22:58.187Z,100.00
2023-03-03T04:25:25.759Z,100.00
2023-03-03T04:27:54.367Z,100.00
2023-03-03T04:30:22.676Z,100.00
2023-03-03T04:32:53.273Z,100.00
2023-03-03T04:35:22.662Z,100.00
2023-03-03T04:37:49.585Z,100.00
2023-03-03T04:40:18.272Z,100.00
2023-03-03T04:42:47.690Z,100.00
2023-03-03T04:45:14.472Z,100.00
2023-03-03T04:47:41.560Z,100.00
2023-03-03T04:50:09.626Z,100.00
2023-03-03T04:52:36.954Z,100.00
2023-03-03T04:55:05.210Z,100.00
2023-03-03T04:57:32.294Z,100.00
2023-03-03T04:59:59.061Z,100.00
2023-03-03T05:02:25.797Z,100.00
2023-03-03T05:04:52.830Z,100.00
2023-03-03T05:07:20.055Z,100.00
2023-03-03T05:09:46.740Z,100.00
2023-03-03T05:12:13.445Z,100.00
2023-03-03T05:14:40.392Z,100.00
2023-03-03T05:17:07.124Z,100.00
2023-03-03T05:19:34.972Z,100.00
2023-03-03T05:22:02.128Z,100.00
2023-03-03T05:24:28.916Z,100.00
2023-03-03T05:26:55.852Z,100.00
2023-03-03T05:29:22.724Z,100.00
2023-03-03T05:31:50.156Z,100.00
2023-03-03T05:34:22.464Z,100.00
2023-03-03T05:36:55.585Z,100.00
2023-03-03T05:39:25.790Z,100.00
2023-03-03T05:41:52.636Z,100.00
2023-03-03T05:44:20.731Z,100.00
2023-03-03T05:46:47.606Z,100.00
2023-03-03T05:49:14.385Z,100.00
2023-03-03T05:51:41.111Z,100.00
2023-03-03T05:54:07.730Z,100.00
2023-03-03T05:56:34.539Z,100.00
2023-03-03T05:59:01.236Z,100.00
2023-03-03T06:01:29.322Z,100.00
2023-03-03T06:03:56.050Z,100.00
2023-03-03T06:06:22.689Z,100.00
2023-03-03T06:08:50.356Z,100.00
2023-03-03T06:11:18.645Z,100.00
2023-03-03T06:13:45.998Z,100.00
2023-03-03T06:16:13.013Z,100.00
2023-03-03T06:18:39.729Z,100.00
2023-03-03T06:21:06.497Z,100.00
2023-03-03T06:23:33.483Z,100.00
2023-03-03T06:26:00.364Z,100.00
2023-03-03T06:28:27.208Z,100.00
2023-03-03T06:30:55.183Z,100.00
2023-03-03T06:33:22.620Z,100.00
2023-03-03T06:35:54.162Z,100.00
2023-03-03T06:38:21.020Z,100.00
2023-03-03T06:40:49.557Z,100.00
2023-03-03T06:43:17.792Z,100.00
2023-03-03T06:45:45.709Z,100.00
2023-03-03T06:48:12.698Z,100.00
2023-03-03T06:50:39.515Z,100.00
2023-03-03T06:53:15.908Z,100.00
2023-03-03T06:55:44.968Z,100.00
2023-03-03T06:58:16.682Z,100.00
2023-03-03T07:00:45.484Z,100.00
2023-03-03T07:03:19.912Z,100.00
2023-03-03T07:05:46.735Z,100.00
2023-03-03T07:08:18.228Z,100.00
2023-03-03T07:10:46.653Z,100.00
2023-03-03T07:13:20.944Z,100.00
2023-03-03T07:15:49.958Z,100.00
2023-03-03T07:18:41.456Z,100.00
2023-03-03T07:21:16.939Z,100.00
2023-03-03T07:23:52.839Z,100.00
2023-03-03T07:26:23.251Z,100.00
2023-03-03T07:29:02.659Z,100.00
2023-03-03T07:31:34.327Z,100.00
2023-03-03T07:34:02.133Z,100.00
2023-03-03T07:36:38.024Z,100.00
2023-03-03T07:39:25.294Z,100.00
2023-03-03T07:42:01.356Z,100.00
2023-03-03T07:44:38.189Z,100.00
2023-03-03T07:47:21.147Z,100.00
2023-03-03T07:49:49.792Z,100.00
2023-03-03T07:52:43.899Z,100.00
2023-03-03T07:55:33.475Z,100.00
2023-03-03T07:58:16.447Z,100.00
2023-03-03T08:00:47.339Z,100.00
2023-03-03T08:03:19.911Z,100.00
2023-03-03T08:05:50.866Z,100.00
2023-03-03T08:08:30.639Z,100.00
2023-03-03T08:10:59.107Z,100.00
2023-03-03T08:13:37.798Z,100.00
2023-03-03T08:16:25.589Z,100.00
2023-03-03T08:18:56.721Z,100.00
2023-03-03T08:21:24.986Z,100.00
2023-03-03T08:23:53.607Z,100.00
2023-03-03T08:26:21.915Z,100.00
2023-03-03T08:28:48.862Z,100.00
2023-03-03T08:31:28.043Z,100.00
2023-03-03T08:34:03.660Z,100.00
2023-03-03T08:36:33.674Z,100.00
2023-03-03T08:39:01.582Z,100.00
2023-03-03T08:41:28.613Z,100.00
2023-03-03T08:43:57.053Z,100.00
2023-03-03T08:46:23.857Z,100.00
2023-03-03T08:48:51.449Z,100.00
2023-03-03T08:51:18.343Z,100.00
2023-03-03T08:53:45.401Z,100.00
2023-03-03T08:56:14.634Z,100.00
2023-03-03T08:59:01.335Z,100.00
2023-03-03T09:01:29.605Z,100.00
2023-03-03T09:03:56.891Z,100.00
2023-03-03T09:06:23.842Z,100.00
2023-03-03T09:08:50.662Z,100.00
2023-03-03T09:11:27.858Z,100.00
2023-03-03T09:14:02.747Z,100.00
2023-03-03T09:16:37.146Z,100.00
2023-03-03T09:19:23.584Z,100.00
2023-03-03T09:21:57.694Z,100.00
2023-03-03T09:24:36.256Z,100.00
2023-03-03T09:27:03.268Z,100.00
2023-03-03T09:29:31.961Z,100.00
2023-03-03T09:32:02.310Z,100.00
2023-03-03T09:34:42.429Z,100.00
2023-03-03T09:37:40.516Z,100.00
2023-03-03T09:40:26.933Z,100.00
2023-03-03T09:43:05.441Z,100.00
2023-03-03T09:46:07.801Z,100.00
2023-03-03T09:48:48.812Z,100.00
2023-03-03T09:51:39.538Z,100.00
2023-03-03T09:54:13.714Z,100.00
2023-03-03T09:56:59.101Z,100.00
2023-03-03T09:59:50.480Z,100.00
2023-03-03T10:02:56.778Z,100.00
2023-03-03T10:05:32.918Z,100.00
2023-03-03T10:08:08.917Z,100.00
2023-03-03T10:11:00.211Z,100.00
2023-03-03T10:13:53.978Z,100.00
2023-03-03T10:16:41.627Z,100.00
2023-03-03T10:19:38.844Z,100.00
2023-03-03T10:22:31.814Z,100.00
2023-03-03T10:24:58.931Z,100.00
2023-03-03T10:27:53.598Z,100.00
2023-03-03T10:30:39.938Z,100.00
2023-03-03T10:33:27.222Z,100.00
2023-03-03T10:36:38.136Z,100.00
2023-03-03T10:39:21.047Z,100.00
2023-03-03T10:42:14.404Z,100.00
2023-03-03T10:45:20.032Z,100.00
2023-03-03T10:47:59.210Z,100.00
2023-03-03T10:50:30.249Z,100.00
2023-03-03T10:53:11.127Z,100.00
2023-03-03T10:56:00.909Z,100.00
2023-03-03T10:58:33.832Z,100.00
2023-03-03T11:01:04.161Z,100.00
2023-03-03T11:03:50.016Z,100.00
2023-03-03T11:06:22.437Z,100.00
2023-03-03T11:08:58.767Z,100.00
2023-03-03T11:11:29.879Z,100.00
2023-03-03T11:14:06.051Z,100.00
2023-03-03T11:17:01.419Z,100.00
2023-03-03T11:19:32.403Z,100.00
2023-03-03T11:22:14.876Z,100.00
2023-03-03T11:25:03.036Z,100.00
2023-03-03T11:27:38.836Z,100.00
2023-03-03T11:30:30.369Z,100.00
2023-03-03T11:33:01.151Z,100.00
2023-03-03T11:36:05.808Z,100.00
2023-03-03T11:38:58.335Z,100.00
2023-03-03T11:41:43.424Z,100.00
2023-03-03T11:44:14.166Z,100.00
2023-03-03T11:47:12.781Z,100.00
2023-03-03T11:49:51.100Z,100.00
2023-03-03T11:52:49.381Z,100.00
2023-03-03T11:55:22.591Z,100.00
2023-03-03T11:58:08.950Z,100.00
2023-03-03T12:01:03.995Z,100.00
2023-03-03T12:03:40.102Z,100.00
2023-03-03T12:06:14.188Z,100.00
2023-03-03T12:09:08.718Z,100.00
2023-03-03T12:11:59.967Z,100.00
2023-03-03T12:14:45.554Z,100.00
2023-03-03T12:17:40.408Z,100.00
2023-03-03T12:20:29.298Z,100.00
2023-03-03T12:23:13.022Z,100.00
2023-03-03T12:26:08.429Z,100.00
2023-03-03T12:28:38.613Z,100.00
2023-03-03T12:31:26.860Z,100.00
2023-03-03T12:34:15.294Z,100.00
2023-03-03T12:36:51.327Z,100.00
2023-03-03T12:39:48.527Z,97.08
2023-03-03T12:42:35.490Z,100.00
2023-03-03T12:45:13.155Z,99.80
2023-03-03T12:47:46.707Z,98.20
2023-03-03T12:50:28.677Z,98.17
2023-03-03T12:53:10.907Z,100.00
2023-03-03T12:55:53.863Z,100.00
2023-03-03T12:58:47.058Z,100.00
2023-03-03T13:01:34.109Z,100.00
2023-03-03T13:04:23.940Z,98.69
2023-03-03T13:07:04.225Z,98.98
2023-03-03T13:09:43.227Z,100.00
2023-03-03T13:12:40.690Z,100.00
2023-03-03T13:15:17.185Z,100.00
2023-03-03T13:17:49.464Z,100.00
2023-03-03T13:20:25.441Z,100.00
2023-03-03T13:22:57.483Z,100.00
2023-03-03T13:25:44.167Z,100.00
2023-03-03T13:28:34.985Z,99.19
2023-03-03T13:31:09.830Z,100.00
2023-03-03T13:33:37.343Z,100.00
2023-03-03T13:36:09.507Z,100.00
2023-03-03T13:38:51.691Z,99.92
2023-03-03T13:41:21.548Z,96.97
2023-03-03T13:44:21.270Z,95.85
2023-03-03T13:46:57.349Z,97.28
2023-03-03T13:49:42.539Z,96.83
2023-03-03T13:52:12.265Z,96.22
2023-03-03T13:54:58.149Z,98.59
2023-03-03T13:57:52.545Z,94.75
2023-03-03T14:00:39.184Z,93.61
2023-03-03T14:03:15.642Z,91.84
2023-03-03T14:05:50.223Z,91.16
2023-03-03T14:08:48.202Z,91.71
2023-03-03T14:11:26.646Z,95.99
2023-03-03T14:14:05.731Z,93.38
2023-03-03T14:16:45.256Z,92.34
2023-03-03T14:19:17.464Z,91.49
2023-03-03T14:21:52.496Z,92.17
2023-03-03T14:24:25.396Z,89.84
2023-03-03T14:27:00.231Z,92.52
2023-03-03T14:29:29.835Z,88.80
2023-03-03T14:32:01.700Z,92.00
2023-03-03T14:34:41.853Z,91.35
2023-03-03T14:37:25.285Z,90.46
2023-03-03T14:40:37.142Z,92.54
2023-03-03T14:43:20.728Z,86.24
2023-03-03T14:45:48.006Z,88.50
2023-03-03T14:48:28.065Z,89.65
2023-03-03T14:51:23.454Z,88.01
2023-03-03T14:53:50.568Z,89.00
2023-03-03T14:56:33.810Z,90.50
2023-03-03T14:59:19.764Z,90.58
2023-03-03T15:01:46.680Z,89.70
2023-03-03T15:04:16.311Z,89.16
2023-03-03T15:06:46.928Z,86.79
2023-03-03T15:09:37.480Z,90.64
2023-03-03T15:12:33.761Z,89.96
2023-03-03T15:15:08.901Z,90.14
2023-03-03T15:17:50.306Z,88.87
2023-03-03T15:20:25.296Z,84.42
2023-03-03T15:23:22.180Z,87.81
2023-03-03T15:26:07.172Z,89.94
2023-03-03T15:28:59.457Z,88.66
2023-03-03T15:31:52.333Z,88.08
2023-03-03T15:34:30.384Z,89.87
2023-03-03T15:37:22.728Z,88.32
2023-03-03T15:40:14.039Z,91.52
2023-03-03T15:43:02.677Z,91.99
2023-03-03T15:45:33.839Z,92.92
2023-03-03T15:48:36.112Z,90.62
2023-03-03T15:52:02.532Z,92.08
2023-03-03T15:54:46.021Z,92.93
2023-03-03T15:57:25.060Z,93.95
2023-03-03T15:59:59.130Z,94.65
2023-03-03T16:02:50.601Z,92.10
2023-03-03T16:05:25.705Z,91.68
2023-03-03T16:08:00.779Z,93.34
2023-03-03T16:10:39.672Z,90.68
2023-03-03T16:13:35.615Z,91.64
2023-03-03T16:16:13.890Z,92.24
2023-03-03T16:18:49.696Z,94.69
2023-03-03T16:21:22.279Z,92.42
2023-03-03T16:24:32.293Z,92.08
2023-03-03T16:27:28.256Z,93.73
2023-03-03T16:30:27.628Z,93.30
2023-03-03T16:33:16.196Z,95.28
2023-03-03T16:35:50.502Z,91.64
2023-03-03T16:38:22.191Z,95.24
2023-03-03T16:40:57.108Z,92.60
2023-03-03T16:43:26.829Z,96.80
2023-03-03T16:45:58.935Z,90.94
2023-03-03T16:48:46.219Z,93.56
2023-03-03T16:51:21.089Z,92.01
2023-03-03T16:53:51.040Z,91.38
2023-03-03T16:56:25.289Z,94.30
2023-03-03T16:58:58.091Z,90.24
2023-03-03T17:01:40.161Z,89.10
2023-03-03T17:04:32.037Z,91.03
2023-03-03T17:07:12.932Z,88.86
2023-03-03T17:09:45.696Z,87.74
2023-03-03T17:12:21.119Z,91.83
2023-03-03T17:14:58.235Z,90.80
2023-03-03T17:17:57.145Z,89.43
2023-03-03T17:20:36.666Z,89.54
2023-03-03T17:23:20.011Z,87.36
2023-03-03T17:26:11.771Z,86.86
2023-03-03T17:29:23.146Z,85.89
2023-03-03T17:32:25.077Z,87.61
2023-03-03T17:35:15.324Z,86.84
2023-03-03T17:37:48.613Z,86.89
2023-03-03T17:40:27.984Z,87.61
2023-03-03T17:43:04.172Z,86.71
2023-03-03T17:45:35.688Z,86.30
2023-03-03T17:48:29.037Z,88.08
2023-03-03T17:51:36.964Z,87.32
2023-03-03T17:54:12.950Z,85.35
2023-03-03T17:56:58.558Z,87.11
2023-03-03T17:59:52.562Z,86.72
2023-03-03T18:02:38.801Z,87.73
2023-03-03T18:05:42.928Z,87.36
2023-03-03T18:08:37.804Z,87.19
2023-03-03T18:11:10.833Z,86.15
2023-03-03T18:14:14.353Z,88.75
2023-03-03T18:17:02.935Z,88.73
2023-03-03T18:20:03.897Z,87.50
2023-03-03T18:22:53.172Z,87.30
2023-03-03T18:25:23.329Z,85.75
2023-03-03T18:28:02.092Z,87.26
2023-03-03T18:30:55.473Z,88.58
2023-03-03T18:33:43.019Z,87.17
2023-03-03T18:36:32.886Z,87.92
2023-03-03T18:39:01.616Z,86.78
2023-03-03T18:41:30.412Z,86.83
2023-03-03T18:44:29.835Z,87.55
2023-03-03T18:46:58.890Z,87.52
2023-03-03T18:49:50.111Z,88.78
2023-03-03T18:52:23.066Z,87.08
2023-03-03T18:55:13.116Z,87.70
2023-03-03T18:57:40.020Z,87.82
2023-03-03T19:00:33.921Z,88.45
2023-03-03T19:03:01.306Z,89.19
2023-03-03T19:05:35.267Z,87.39
2023-03-03T19:08:23.454Z,89.68
2023-03-03T19:11:03.403Z,89.12
2023-03-03T19:13:33.184Z,87.23
2023-03-03T19:16:26.114Z,88.13
2023-03-03T19:18:52.973Z,85.30
2023-03-03T19:21:28.352Z,90.41
2023-03-03T19:24:03.609Z,87.51
2023-03-03T19:26:58.055Z,85.32
2023-03-03T19:29:46.845Z,86.63
2023-03-03T19:32:38.380Z,85.52
2023-03-03T19:35:33.140Z,86.26
2023-03-03T19:38:20.374Z,85.10
2023-03-03T19:41:12.500Z,86.01
2023-03-03T19:43:54.723Z,85.63
2023-03-03T19:46:46.263Z,84.90
2023-03-03T19:49:41.116Z,85.11
2023-03-03T19:52:14.846Z,87.57
2023-03-03T19:54:46.386Z,84.11
2023-03-03T19:57:34.786Z,84.41
2023-03-03T20:00:26.085Z,85.00
2023-03-03T20:03:02.868Z,87.17
2023-03-03T20:05:35.056Z,87.16
2023-03-03T20:08:29.977Z,84.23
2023-03-03T20:11:05.713Z,84.57
2023-03-03T20:13:50.846Z,84.36
2023-03-03T20:16:37.744Z,84.11
2023-03-03T20:19:07.611Z,82.82
2023-03-03T20:21:42.716Z,85.54
2023-03-03T20:24:31.110Z,83.88
2023-03-03T20:27:05.485Z,83.37
2023-03-03T20:29:44.692Z,82.28
2023-03-03T20:32:36.580Z,83.13
2023-03-03T20:35:16.507Z,83.31
2023-03-03T20:37:53.998Z,81.76
2023-03-03T20:40:54.438Z,83.46
2023-03-03T20:43:26.320Z,79.73
2023-03-03T20:45:59.186Z,77.30
2023-03-03T20:48:48.150Z,80.05
2023-03-03T20:51:25.257Z,81.17
2023-03-03T20:54:07.311Z,81.13
2023-03-03T20:57:15.887Z,78.32
2023-03-03T21:00:03.117Z,78.06
2023-03-03T21:02:35.946Z,78.21
2023-03-03T21:05:16.067Z,76.02
2023-03-03T21:08:07.154Z,77.90
2023-03-03T21:10:36.484Z,76.77
2023-03-03T21:13:40.982Z,76.77
2023-03-03T21:16:20.264Z,76.22
2023-03-03T21:19:04.492Z,76.37
2023-03-03T21:21:37.201Z,76.05
2023-03-03T21:24:04.519Z,76.41
2023-03-03T21:26:50.278Z,73.91
2023-03-03T21:29:34.591Z,74.45
2023-03-03T21:32:07.848Z,74.99
2023-03-03T21:34:39.875Z,76.93
2023-03-03T21:37:08.200Z,78.06
2023-03-03T21:39:46.974Z,79.15
2023-03-03T21:42:16.271Z,84.48
2023-03-03T21:44:46.640Z,79.85
2023-03-03T21:47:16.268Z,82.74
2023-03-03T21:49:44.203Z,81.96
2023-03-03T21:52:12.852Z,80.02
2023-03-03T21:54:40.682Z,83.01
2023-03-03T21:57:07.508Z,77.99
2023-03-03T21:59:34.268Z,77.45
2023-03-03T22:02:01.462Z,81.27
2023-03-03T22:04:28.661Z,80.25
2023-03-03T22:06:56.151Z,79.16
2023-03-03T22:09:23.733Z,81.80
2023-03-03T22:11:50.924Z,77.40
2023-03-03T22:14:18.254Z,76.59
2023-03-03T22:16:45.647Z,78.66
2023-03-03T22:19:12.501Z,78.78
2023-03-03T22:21:39.932Z,76.34
2023-03-03T22:24:07.447Z,75.12
2023-03-03T22:26:35.051Z,75.82
2023-03-03T22:29:02.324Z,74.63
2023-03-03T22:31:29.151Z,75.08
2023-03-03T22:33:56.106Z,74.20
2023-03-03T22:36:22.987Z,75.58
2023-03-03T22:38:50.020Z,75.76
2023-03-03T22:41:17.455Z,75.62
2023-03-03T22:43:45.007Z,77.98
2023-03-03T22:46:12.067Z,78.35
2023-03-03T22:48:39.631Z,77.99
2023-03-03T22:51:06.829Z,75.92
2023-03-03T22:53:34.088Z,76.24
2023-03-03T22:56:01.462Z,76.04
2023-03-03T22:58:29.484Z,74.57
2023-03-03T23:00:56.339Z,75.13
2023-03-03T23:03:23.725Z,76.47
2023-03-03T23:05:51.941Z,73.51
2023-03-03T23:08:26.497Z,74.43
2023-03-03T23:10:56.231Z,74.11
2023-03-03T23:13:25.281Z,77.75
2023-03-03T23:15:52.267Z,76.38
2023-03-03T23:18:19.082Z,74.48
2023-03-03T23:20:51.088Z,75.13
2023-03-03T23:23:20.663Z,77.11
2023-03-03T23:25:47.678Z,79.79
2023-03-03T23:28:15.684Z,79.20
2023-03-03T23:30:43.012Z,79.80
2023-03-03T23:33:09.834Z,83.88
2023-03-03T23:35:44.404Z,80.34
2023-03-03T23:38:15.459Z,79.07
2023-03-03T23:40:44.777Z,81.34
2023-03-03T23:43:11.738Z,80.94
2023-03-03T23:45:38.625Z,79.18
2023-03-03T23:48:06.054Z,81.83
2023-03-03T23:50:34.158Z,82.77
2023-03-03T23:53:00.788Z,82.91
2023-03-03T23:55:27.601Z,82.62
2023-03-03T23:57:54.421Z,85.44
